Time;durP1;ratioP1;P1;durP2;ratioP2;P2;SDS_P1;SDS_P2;PMS_P1;PMS_P2;Temp;Humidity;BMP_temperature;BMP_pressure;BME280_temperature;BME280_humidity;BME280_pressure;Samples;Min_cycle;Max_cycle;Signal;HPM_P1;HPM_P2
2023/08/05 13:07:14;;;;;;;4.20;2.50;;;;;;;38.94;29.78;99263.50;5074046;27;1310528;-76
2023/08/05 13:09:40;;;;;;;4.97;2.45;;;;;;;39.18;27.78;99262.00;5107889;28;20032;-76
2023/08/05 13:12:06;;;;;;;3.55;2.70;;;;;;;39.32;25.78;99258.75;5100222;28;20032;-74
2023/08/05 13:14:31;;;;;;;5.38;2.67;;;;;;;39.58;28.69;99271.38;5102742;28;20119;-74
2023/08/05 13:16:57;;;;;;;6.07;2.35;;;;;;;39.56;25.55;99263.44;5097744;28;20020;-73
2023/08/05 13:19:22;;;;;;;6.93;2.45;;;;;;;39.43;28.25;99239.59;5096183;28;20030;-74
2023/08/05 13:21:48;;;;;;;2.75;2.10;;;;;;;39.60;27.77;99232.41;5090381;28;20467;-76
2023/08/05 13:24:13;;;;;;;2.85;2.08;;;;;;;39.98;26.29;99272.63;5100399;22;20086;-68
2023/08/05 13:26:39;;;;;;;4.45;2.50;;;;;;;39.86;26.87;99238.78;5041167;28;20517;-65
2023/08/05 13:29:04;;;;;;;4.65;2.50;;;;;;;39.93;26.01;99256.06;5045992;28;20441;-66
2023/08/05 13:31:30;;;;;;;5.28;2.10;;;;;;;39.92;25.75;99257.06;5047216;28;20375;-67
2023/08/05 13:33:55;;;;;;;4.18;2.05;;;;;;;40.04;25.92;99269.25;5046971;28;20053;-67
2023/08/05 13:36:21;;;;;;;3.70;2.38;;;;;;;40.02;26.82;99265.88;5047265;28;20030;-68
2023/08/05 13:38:47;;;;;;;5.55;2.40;;;;;;;39.96;28.23;99248.44;5044475;28;20033;-68
2023/08/05 13:41:13;;;;;;;6.38;2.60;;;;;;;39.89;27.56;99254.66;5042162;28;20040;-67
2023/08/05 13:43:39;;;;;;;5.05;2.50;;;;;;;39.58;28.53;99230.88;5044231;28;20064;-68
2023/08/05 13:46:04;;;;;;;5.07;2.50;;;;;;;39.71;28.61;99243.97;5044369;28;20061;-68
2023/08/05 13:48:35;;;;;;;6.00;2.60;;;;;;;39.82;27.69;99242.81;5046119;28;20060;-65
2023/08/05 13:51:08;;;;;;;5.15;2.40;;;;;;;39.92;24.46;99238.13;5044367;28;20029;-68
2023/08/05 13:53:34;;;;;;;6.00;2.65;;;;;;;39.77;26.87;99206.34;5046848;28;20045;-68
2023/08/05 13:56:01;;;;;;;7.10;2.30;;;;;;;39.91;27.51;99226.47;5042882;28;20505;-68
2023/08/05 13:58:27;;;;;;;3.78;2.28;;;;;;;39.85;27.00;99199.28;5046491;28;20120;-68
2023/08/05 14:00:54;;;;;;;9.75;3.17;;;;;;;40.04;27.72;99230.56;5046751;28;20080;-67
2023/08/05 14:03:20;;;;;;;8.63;3.00;;;;;;;39.83;32.33;99223.75;5046226;28;20052;-69
2023/08/05 14:05:50;;;;;;;10.70;3.22;;;;;;;39.72;33.89;99218.66;5046654;28;20033;-68
2023/08/05 14:08:16;;;;;;;7.95;2.80;;;;;;;39.48;32.87;99206.69;5045672;28;20060;-67
2023/08/05 14:10:47;;;;;;;7.72;2.58;;;;;;;39.08;33.71;99202.72;5046465;28;20025;-67
2023/08/05 14:13:13;;;;;;;17.77;4.00;;;;;;;39.02;35.41;99224.94;5046564;28;20075;-67
2023/08/05 14:15:38;;;;;;;9.50;2.85;;;;;;;38.77;34.71;99209.44;5042204;28;20469;-67
2023/08/05 14:18:04;;;;;;;10.38;3.50;;;;;;;38.62;35.23;99216.34;5035315;28;20025;-67
2023/08/05 14:20:30;;;;;;;6.43;2.78;;;;;;;38.61;35.37;99215.50;5033173;28;20022;-67
2023/08/05 14:22:55;;;;;;;13.18;3.42;;;;;;;38.62;36.12;99214.50;5032652;28;20026;-66
2023/08/05 14:25:21;;;;;;;14.88;3.58;;;;;;;38.74;35.45;99204.31;4997098;28;20521;-66
2023/08/05 14:27:48;;;;;;;10.85;3.17;;;;;;;38.72;36.14;99195.56;5015170;28;20025;-68
2023/08/05 14:30:13;;;;;;;15.57;3.70;;;;;;;38.75;36.46;99205.22;5001967;28;20455;-68
2023/08/05 14:32:39;;;;;;;14.10;3.67;;;;;;;38.67;35.89;99203.22;5018855;28;20071;-68
2023/08/05 14:35:04;;;;;;;25.15;4.85;;;;;;;38.57;36.38;99191.69;5028378;28;20021;-68
2023/08/05 14:37:30;;;;;;;18.48;3.97;;;;;;;38.37;36.91;99145.19;5015461;28;20057;-69
2023/08/05 14:39:55;;;;;;;36.03;6.68;;;;;;;38.61;36.25;99196.63;5026472;28;20026;-67
2023/08/05 14:42:21;;;;;;;17.27;3.55;;;;;;;38.39;36.56;99192.56;5032799;28;20017;-70
2023/08/05 14:44:46;;;;;;;27.10;6.78;;;;;;;38.33;36.21;99185.97;5027015;28;20104;-68
2023/08/05 14:47:12;;;;;;;16.20;3.72;;;;;;;38.27;37.59;99185.69;5032267;28;20119;-70
2023/08/05 14:49:37;;;;;;;11.02;3.10;;;;;;;38.12;36.95;99171.88;5016175;28;20075;-67
2023/08/05 14:52:04;;;;;;;15.38;3.40;;;;;;;37.91;37.86;99167.66;5032678;28;20025;-67
2023/08/05 14:54:29;;;;;;;20.55;4.63;;;;;;;37.92;38.42;99176.56;5032320;28;20472;-68
2023/08/05 14:56:55;;;;;;;23.25;5.30;;;;;;;37.95;38.23;99168.19;5013585;28;20044;-69
2023/08/05 14:59:21;;;;;;;18.02;3.30;;;;;;;37.92;37.27;99150.47;4997259;28;20033;-69
2023/08/05 15:01:46;;;;;;;29.55;4.30;;;;;;;38.00;38.29;99171.28;5032215;28;20036;-68
2023/08/05 15:04:12;;;;;;;45.05;7.93;;;;;;;37.99;39.20;99170.41;5032502;28;20021;-67
2023/08/05 15:06:37;;;;;;;21.25;4.07;;;;;;;37.97;37.98;99163.47;5032456;28;20033;-67
2023/08/05 15:09:03;;;;;;;25.10;5.05;;;;;;;37.89;38.46;99161.56;5032010;28;20024;-67
2023/08/05 15:11:29;;;;;;;55.33;9.38;;;;;;;37.58;39.26;99144.84;5032444;28;20033;-67
2023/08/05 15:13:54;;;;;;;23.02;5.15;;;;;;;37.38;39.00;99129.63;5032268;28;20471;-69
2023/08/05 15:16:20;;;;;;;27.67;4.70;;;;;;;37.54;40.02;99153.22;5032318;28;20156;-71
2023/08/05 15:18:46;;;;;;;16.33;3.83;;;;;;;37.53;40.04;99145.31;5030743;28;20017;-69
2023/08/05 15:21:11;;;;;;;17.25;3.65;;;;;;;37.54;41.04;99150.53;5032374;28;20033;-68
2023/08/05 15:23:37;;;;;;;25.48;4.00;;;;;;;37.51;40.40;99140.06;5031890;28;20026;-68
2023/08/05 15:26:03;;;;;;;13.35;3.25;;;;;;;37.56;40.17;99147.69;5013995;28;20091;-68
2023/08/05 15:28:29;;;;;;;31.85;4.95;;;;;;;37.48;40.69;99153.81;5031295;28;20104;-68
2023/08/05 15:30:56;;;;;;;37.42;5.65;;;;;;;37.25;40.26;99147.97;5031812;28;20455;-68
2023/08/05 15:33:23;;;;;;;27.70;6.07;;;;;;;37.16;41.52;99154.22;5031748;28;20140;-68
2023/08/05 15:35:49;;;;;;;43.45;8.45;;;;;;;37.04;41.04;99132.03;5031451;28;20103;-69
2023/08/05 15:38:14;;;;;;;23.30;3.92;;;;;;;36.95;41.26;99146.34;5031709;28;20033;-68
2023/08/05 15:40:40;;;;;;;30.92;3.97;;;;;;;36.80;42.82;99137.84;5031679;28;20052;-68
2023/08/05 15:43:06;;;;;;;23.17;4.88;;;;;;;36.61;42.12;99120.78;5031651;28;20021;-68
2023/08/05 15:45:31;;;;;;;17.63;3.60;;;;;;;36.66;43.35;99144.53;5030071;28;20451;-68
2023/08/05 15:47:56;;;;;;;14.82;3.58;;;;;;;36.65;43.28;99148.22;5030976;28;20033;-67
2023/08/05 15:50:22;;;;;;;19.17;3.58;;;;;;;36.44;42.45;99133.13;5031228;28;20041;-68
2023/08/05 15:52:49;;;;;;;17.30;3.38;;;;;;;36.37;42.80;99137.38;5027412;28;20021;-69
2023/08/05 15:55:15;;;;;;;22.02;4.25;;;;;;;36.35;43.83;99147.38;5031167;28;20057;-69
2023/08/05 15:57:41;;;;;;;17.27;4.25;;;;;;;36.37;43.70;99142.75;5030950;28;20392;-68
2023/08/05 16:00:07;;;;;;;17.85;3.88;;;;;;;36.33;45.58;99130.56;5031071;28;20026;-68
2023/08/05 16:02:36;;;;;;;8.73;3.30;;;;;;;36.38;44.83;99147.97;5030877;28;20033;-68
2023/08/05 16:05:02;;;;;;;;;;;;;;;36.26;44.06;99149.94;5013657;28;20116;-68
2023/08/05 16:07:27;;;;;;;9.40;3.35;;;;;;;36.06;44.46;99115.97;5030497;28;19995;-68
2023/08/05 16:09:53;;;;;;;17.70;3.95;;;;;;;36.25;45.47;99150.06;5030660;28;20029;-69
2023/08/05 16:12:20;;;;;;;6.05;2.80;;;;;;;36.27;44.03;99135.47;5038857;28;20072;-68
2023/08/05 16:14:50;;;;;;;13.60;3.15;;;;;;;36.22;45.63;99139.59;5031122;28;20025;-68
2023/08/05 16:17:16;;;;;;;7.30;2.90;;;;;;;35.93;45.48;99106.34;5031180;28;20029;-68
2023/08/05 16:19:42;;;;;;;7.38;2.88;;;;;;;35.92;45.57;99131.50;4995425;28;20060;-68
2023/08/05 16:22:07;;;;;;;11.45;3.40;;;;;;;35.58;46.26;99123.81;5030703;28;20108;-67
2023/08/05 16:24:33;;;;;;;14.45;3.90;;;;;;;35.33;47.76;99092.91;5030629;28;20130;-68
2023/08/05 16:26:59;;;;;;;11.73;3.00;;;;;;;35.35;48.03;99125.81;5017710;28;20018;-67
2023/08/05 16:29:24;;;;;;;10.82;3.03;;;;;;;35.22;47.69;99128.72;5030732;28;20037;-69
2023/08/05 16:31:49;;;;;;;10.85;3.00;;;;;;;35.11;48.63;99121.63;5030738;28;20414;-68
2023/08/05 16:34:15;;;;;;;6.15;2.90;;;;;;;35.02;48.98;99119.75;5030892;28;20025;-67
2023/08/05 16:36:40;;;;;;;7.97;2.95;;;;;;;34.88;48.89;99101.31;5030627;28;20160;-67
2023/08/05 16:39:06;;;;;;;9.23;3.40;;;;;;;34.96;48.91;99120.28;5030853;28;20108;-66
2023/08/05 16:41:31;;;;;;;7.55;2.90;;;;;;;34.93;49.40;99125.91;5030369;28;20025;-67
2023/08/05 16:43:58;;;;;;;7.15;3.10;;;;;;;34.92;48.90;99121.50;5030260;28;20060;-67
2023/08/05 16:46:24;;;;;;;13.48;3.08;;;;;;;34.80;49.65;99128.78;5012591;28;20110;-67
2023/08/05 16:48:50;;;;;;;6.45;2.65;;;;;;;34.71;49.65;99125.03;5030364;28;20032;-66
2023/08/05 16:51:15;;;;;;;6.55;2.80;;;;;;;34.53;49.60;99102.50;5030322;28;20501;-67
2023/08/05 16:53:42;;;;;;;6.03;2.90;;;;;;;34.61;50.62;99135.69;5027198;28;20037;-68
2023/08/05 16:56:07;;;;;;;14.13;3.72;;;;;;;34.60;51.71;99127.81;5027200;28;20025;-67
2023/08/05 16:58:33;;;;;;;7.13;2.88;;;;;;;34.54;50.96;99131.84;5028510;28;20044;-67
2023/08/05 17:00:58;;;;;;;8.52;3.28;;;;;;;34.30;51.90;99121.34;5030021;28;20029;-66
2023/08/05 17:03:24;;;;;;;6.03;3.08;;;;;;;34.21;51.21;99111.38;5029390;28;20026;-66
2023/08/05 17:05:51;;;;;;;9.38;2.97;;;;;;;34.09;52.92;99116.78;4994322;28;20111;-66
2023/08/05 17:08:36;;;;;;;12.43;3.42;;;;;;;34.03;53.86;99136.03;5030105;28;20040;-66
2023/08/05 17:11:02;;;;;;;9.05;3.58;;;;;;;33.88;55.09;99123.94;4981727;28;20393;-67
2023/08/05 17:13:28;;;;;;;11.68;3.10;;;;;;;33.74;54.26;99120.53;4955026;28;20047;-67
2023/08/05 17:15:54;;;;;;;12.95;3.65;;;;;;;33.60;56.02;99123.47;4952835;28;20047;-67
2023/08/05 17:18:20;;;;;;;9.68;3.33;;;;;;;33.35;56.42;99109.41;4964628;28;20078;-67
2023/08/05 17:20:45;;;;;;;13.48;4.00;;;;;;;33.44;56.04;99124.72;4968079;28;20044;-67
2023/08/05 17:23:11;;;;;;;7.72;3.70;;;;;;;33.42;56.69;99121.28;4968635;28;20503;-66
2023/08/05 17:25:41;;;;;;;12.35;3.60;;;;;;;33.18;56.59;99129.44;4968003;28;20062;-65
2023/08/05 17:28:06;;;;;;;10.73;3.28;;;;;;;33.24;55.97;99139.66;4968682;28;20570;-67
2023/08/05 17:30:34;;;;;;;10.18;3.65;;;;;;;32.97;57.29;99143.50;4952135;28;20121;-66
2023/08/05 17:32:59;;;;;;;9.25;3.22;;;;;;;32.90;58.36;99143.13;4968728;28;20035;-67
2023/08/05 17:35:25;;;;;;;8.65;3.47;;;;;;;32.89;57.85;99148.63;4968632;28;20845;-67
2023/08/05 17:37:50;;;;;;;8.05;3.60;;;;;;;32.46;59.41;99112.63;4968549;28;20039;-66
2023/08/05 17:40:16;;;;;;;11.60;3.38;;;;;;;32.59;60.79;99144.63;4964923;28;20030;-66
2023/08/05 17:42:41;;;;;;;8.88;3.30;;;;;;;32.36;61.19;99139.22;5014650;28;20505;-68
2023/08/05 17:45:07;;;;;;;7.22;3.47;;;;;;;32.07;61.94;99126.16;5028744;28;20498;-67
2023/08/05 17:47:34;;;;;;;8.10;3.70;;;;;;;31.91;62.82;99098.94;5013088;28;20061;-67
2023/08/05 17:49:59;;;;;;;12.52;3.72;;;;;;;31.95;62.57;99143.09;5019587;28;20017;-66
2023/08/05 17:52:24;;;;;;;10.50;3.70;;;;;;;31.85;63.41;99121.59;5022849;28;20072;-67
2023/08/05 17:54:50;;;;;;;9.70;3.90;;;;;;;31.88;63.89;99129.38;5025263;28;20080;-66
2023/08/05 17:57:15;;;;;;;20.48;4.90;;;;;;;31.53;65.82;99121.22;5032081;28;20083;-69
2023/08/05 17:59:42;;;;;;;15.98;4.80;;;;;;;31.65;67.10;99147.03;5029604;28;20087;-69
2023/08/05 18:02:09;;;;;;;7.30;3.83;;;;;;;31.51;66.74;99139.16;5032353;28;20108;-71
2023/08/05 18:04:36;;;;;;;8.32;3.67;;;;;;;31.43;66.76;99153.88;5023259;28;20467;-68
2023/08/05 18:07:02;;;;;;;6.97;3.92;;;;;;;31.04;67.70;99102.41;5019535;28;20035;-67
2023/08/05 18:09:29;;;;;;;8.65;3.70;;;;;;;31.25;65.60;99139.19;5029184;28;20534;-67
2023/08/05 18:11:55;;;;;;;13.07;4.40;;;;;;;31.27;68.14;99150.63;5032936;28;20078;-67
2023/08/05 18:14:20;;;;;;;9.95;4.10;;;;;;;31.12;68.57;99128.56;5032923;28;20033;-67
2023/08/05 18:16:46;;;;;;;9.18;4.32;;;;;;;31.27;69.01;99155.94;5032997;28;20036;-67
2023/08/05 18:19:11;;;;;;;12.27;4.43;;;;;;;31.22;68.94;99168.75;5033272;28;20029;-68
2023/08/05 18:21:37;;;;;;;6.88;3.80;;;;;;;31.16;68.37;99177.19;5033009;28;20022;-68
2023/08/05 18:24:04;;;;;;;8.18;4.38;;;;;;;30.92;69.10;99180.53;4997506;28;20048;-68
2023/08/05 18:26:29;;;;;;;11.40;4.13;;;;;;;30.87;69.43;99183.53;5032761;28;20064;-68
2023/08/05 18:28:54;;;;;;;7.07;3.72;;;;;;;30.85;69.50;99181.91;5032931;28;20034;-68
2023/08/05 18:31:20;;;;;;;9.10;4.28;;;;;;;30.47;70.98;99180.84;5032696;28;20497;-69
2023/08/05 18:33:45;;;;;;;9.82;4.28;;;;;;;30.63;71.49;99186.00;5032622;28;20021;-68
2023/08/05 18:36:12;;;;;;;13.63;5.00;;;;;;;30.63;70.85;99192.22;5031500;28;20040;-67
2023/08/05 18:38:37;;;;;;;13.57;5.60;;;;;;;30.61;71.84;99188.78;5032582;28;20044;-67
2023/08/05 18:41:05;;;;;;;20.45;4.88;;;;;;;30.57;71.23;99194.41;5032613;28;20025;-67
2023/08/05 18:43:30;;;;;;;16.23;5.40;;;;;;;30.54;71.79;99189.31;5025420;28;20120;-67
2023/08/05 18:46:16;;;;;;;18.13;4.60;;;;;;;30.61;70.68;99201.28;5018905;28;20129;-67
2023/08/05 18:48:41;;;;;;;21.70;4.90;;;;;;;30.64;70.82;99206.38;4988048;28;20065;-67
2023/08/05 18:51:07;;;;;;;26.00;5.63;;;;;;;30.60;70.97;99205.72;4988189;28;20074;-66
2023/08/05 18:53:32;;;;;;;20.67;5.10;;;;;;;30.46;71.44;99182.66;4988764;28;20568;-66
2023/08/05 18:56:00;;;;;;;19.13;4.90;;;;;;;30.45;71.29;99183.59;4990318;28;20050;-66
2023/08/05 18:58:26;;;;;;;14.70;4.57;;;;;;;30.46;71.94;99224.41;4989738;28;20045;-66
2023/08/05 19:00:51;;;;;;;14.18;5.05;;;;;;;30.41;71.48;99216.72;5002701;28;20406;-67
2023/08/05 19:03:17;;;;;;;13.30;4.95;;;;;;;30.10;72.10;99151.34;5009244;28;20038;-67
2023/08/05 19:05:53;;;;;;;14.63;4.72;;;;;;;30.38;72.76;99224.94;5009946;28;20048;-68
2023/08/05 19:08:19;;;;;;;11.43;4.57;;;;;;;30.31;73.18;99221.78;5009851;28;20103;-67
2023/08/05 19:10:44;;;;;;;19.50;4.88;;;;;;;30.43;72.94;99236.13;5009175;28;20434;-68
2023/08/05 19:13:10;;;;;;;16.33;5.30;;;;;;;30.41;73.05;99227.38;5009490;28;20087;-67
2023/08/05 19:15:35;;;;;;;16.15;4.88;;;;;;;30.32;73.25;99241.31;4976503;28;20045;-68
2023/08/05 19:18:00;;;;;;;18.25;5.72;;;;;;;30.22;74.18;99233.06;5009667;28;20549;-67
2023/08/05 19:20:26;;;;;;;20.38;6.10;;;;;;;30.31;75.15;99237.75;5027055;28;20587;-68
2023/08/05 19:22:52;;;;;;;20.10;5.90;;;;;;;30.15;73.61;99210.44;5031938;28;20471;-67
2023/08/05 19:25:17;;;;;;;17.70;5.18;;;;;;;30.18;74.41;99243.03;5030198;28;20054;-67
2023/08/05 19:27:43;;;;;;;14.00;5.07;;;;;;;30.09;74.46;99229.47;5016148;28;20026;-68
2023/08/05 19:30:08;;;;;;;12.50;5.43;;;;;;;30.01;75.12;99208.69;5019745;28;20033;-67
2023/08/05 19:32:34;;;;;;;15.93;5.45;;;;;;;30.20;75.11;99239.44;5030816;28;20132;-68
2023/08/05 19:35:01;;;;;;;15.38;5.20;;;;;;;29.97;75.51;99212.47;5028711;28;20516;-67
2023/08/05 19:37:26;;;;;;;20.85;5.18;;;;;;;29.96;75.29;99219.59;5031190;28;20410;-67
2023/08/05 19:39:52;;;;;;;20.02;5.47;;;;;;;30.13;74.75;99239.81;5031248;28;20026;-66
2023/08/05 19:42:19;;;;;;;14.38;5.00;;;;;;;30.06;75.91;99234.97;5030885;28;20029;-67
2023/08/05 19:44:46;;;;;;;15.65;5.13;;;;;;;29.97;76.12;99244.41;5029896;28;20026;-67
2023/08/05 19:47:13;;;;;;;15.43;4.78;;;;;;;29.84;76.26;99229.16;5031347;28;20061;-67
2023/08/05 19:49:40;;;;;;;18.10;5.60;;;;;;;29.54;78.40;99239.94;5024142;28;20041;-67
2023/08/05 19:52:06;;;;;;;21.63;5.60;;;;;;;29.21;79.50;99212.63;5026658;28;20373;-67
2023/08/05 19:54:31;;;;;;;21.40;5.82;;;;;;;29.47;78.43;99235.94;5026169;28;20026;-68
2023/08/05 19:56:57;;;;;;;26.00;6.82;;;;;;;29.60;78.36;99238.72;5030948;28;20022;-68
2023/08/05 19:59:22;;;;;;;20.42;5.68;;;;;;;29.52;78.44;99229.41;5030546;28;20033;-67
2023/08/05 20:01:48;;;;;;;17.40;6.05;;;;;;;29.49;79.12;99221.59;5030858;28;20060;-67
2023/08/05 20:04:13;;;;;;;12.63;5.50;;;;;;;29.41;78.97;99223.91;5031257;28;20086;-69
2023/08/05 20:06:39;;;;;;;13.85;5.75;;;;;;;29.25;79.38;99225.72;5029692;28;20106;-68
2023/08/05 20:09:04;;;;;;;16.88;5.10;;;;;;;29.13;80.45;99222.03;5029981;28;20494;-68
2023/08/05 20:11:30;;;;;;;9.35;4.95;;;;;;;29.15;80.27;99226.28;5030438;28;20036;-68
2023/08/05 20:13:55;;;;;;;20.08;5.72;;;;;;;29.02;80.49;99215.56;4995480;28;20053;-68
2023/08/05 20:16:21;;;;;;;14.52;5.38;;;;;;;29.02;80.47;99199.63;5030375;28;20394;-68
2023/08/05 20:18:47;;;;;;;14.27;5.45;;;;;;;28.99;80.58;99193.63;5029703;28;20020;-67
2023/08/05 20:21:12;;;;;;;12.82;5.38;;;;;;;29.03;79.50;99195.13;5016600;28;20038;-68
2023/08/05 20:23:38;;;;;;;11.38;5.13;;;;;;;29.08;79.96;99224.94;5030381;28;20487;-69
2023/08/05 20:26:10;;;;;;;27.88;5.85;;;;;;;29.13;80.10;99225.53;5029778;28;20100;-68
2023/08/05 20:28:35;;;;;;;121.97;14.18;;;;;;;29.21;79.90;99225.09;5030607;28;20099;-68
2023/08/05 20:31:01;;;;;;;13.75;5.38;;;;;;;29.34;79.92;99231.38;5030371;28;20479;-67
2023/08/05 20:33:26;;;;;;;17.17;5.95;;;;;;;29.40;80.15;99231.94;5030702;28;20095;-67
2023/08/05 20:35:52;;;;;;;17.10;6.03;;;;;;;29.18;80.38;99222.59;5012561;28;20083;-67
2023/08/05 20:38:18;;;;;;;23.35;5.93;;;;;;;29.22;79.37;99221.44;5030176;28;20110;-67
2023/08/05 20:40:44;;;;;;;19.05;6.15;;;;;;;29.04;80.51;99213.66;5007707;28;20100;-66
2023/08/05 20:43:09;;;;;;;20.42;6.75;;;;;;;28.98;80.62;99218.47;4987870;28;20038;-65
2023/08/05 20:45:36;;;;;;;17.85;8.35;;;;;;;28.93;81.59;99239.16;5006087;28;20081;-67
2023/08/05 20:48:01;;;;;;;22.70;9.20;;;;;;;28.93;81.85;99236.50;5007132;28;20040;-66
2023/08/05 20:50:27;;;;;;;28.08;9.80;;;;;;;28.92;81.96;99240.09;5004495;28;20043;-65
2023/08/05 20:52:52;;;;;;;29.90;9.73;;;;;;;28.95;81.51;99237.25;4991821;28;20100;-63
2023/08/05 20:55:17;;;;;;;23.80;8.57;;;;;;;28.99;82.28;99230.81;4991460;28;20056;-65
2023/08/05 20:57:46;;;;;;;34.65;9.57;;;;;;;28.97;82.43;99206.97;5007970;28;20034;-69
2023/08/05 21:00:12;;;;;;;30.35;10.10;;;;;;;29.30;81.86;99229.00;5007895;28;20578;-68
2023/08/05 21:02:37;;;;;;;42.20;10.35;;;;;;;29.27;80.30;99213.19;5008113;28;20513;-64
2023/08/05 21:05:03;;;;;;;35.25;11.55;;;;;;;29.20;81.50;99202.94;5007982;28;20030;-64
2023/08/05 21:07:31;;;;;;;39.10;11.60;;;;;;;29.34;81.69;99231.38;5007525;28;20064;-65
2023/08/05 21:09:57;;;;;;;38.80;11.65;;;;;;;29.33;81.16;99218.19;5007951;28;20442;-66
2023/08/05 21:12:23;;;;;;;36.13;12.52;;;;;;;29.43;81.39;99224.63;5024631;28;20110;-69
2023/08/05 21:14:48;;;;;;;34.25;10.80;;;;;;;29.36;80.41;99212.69;5030037;28;20458;-66
2023/08/05 21:17:14;;;;;;;22.98;8.88;;;;;;;29.18;80.12;99204.00;5029969;28;20025;-65
2023/08/05 21:19:39;;;;;;;17.67;7.20;;;;;;;29.11;80.12;99214.16;5029542;28;20112;-66
2023/08/05 21:22:06;;;;;;;22.40;6.80;;;;;;;29.13;82.05;99222.03;5029343;28;20410;-66
2023/08/05 21:24:31;;;;;;;20.67;6.70;;;;;;;29.08;80.79;99224.09;5029728;28;20555;-64
2023/08/05 21:26:57;;;;;;;12.35;6.10;;;;;;;29.09;80.59;99220.50;5029987;28;20033;-66
2023/08/05 21:29:22;;;;;;;11.63;5.97;;;;;;;28.91;81.48;99202.03;5029660;28;20122;-66
2023/08/05 21:31:47;;;;;;;10.25;5.53;;;;;;;28.92;81.47;99205.56;5024270;28;20029;-68
2023/08/05 21:34:13;;;;;;;11.95;5.28;;;;;;;28.78;81.75;99175.34;5033924;28;20060;-63
2023/08/05 21:36:38;;;;;;;10.65;5.25;;;;;;;28.92;82.47;99197.59;5033840;28;20053;-66
2023/08/05 21:39:05;;;;;;;13.00;5.28;;;;;;;28.94;82.10;99207.19;5033750;28;20022;-63
2023/08/05 21:41:30;;;;;;;9.43;5.30;;;;;;;28.97;81.43;99212.28;5033575;28;20029;-67
2023/08/05 21:43:55;;;;;;;15.15;5.07;;;;;;;28.65;81.13;99185.81;5033385;28;20455;-66
2023/08/05 21:46:21;;;;;;;9.95;5.88;;;;;;;28.79;82.42;99216.06;5033955;28;20124;-66
2023/08/05 21:48:46;;;;;;;11.32;5.13;;;;;;;28.68;83.44;99212.22;5033855;28;20030;-66
2023/08/05 21:51:12;;;;;;;11.68;5.40;;;;;;;28.67;83.36;99214.94;5033244;28;20437;-67
2023/08/05 21:53:37;;;;;;;16.10;6.05;;;;;;;28.69;82.86;99207.78;5033539;28;20022;-68
2023/08/05 21:56:03;;;;;;;9.70;5.30;;;;;;;28.72;82.63;99207.59;5033338;28;20024;-66
2023/08/05 21:58:28;;;;;;;11.48;5.28;;;;;;;28.81;83.00;99201.75;5030402;28;20510;-64
2023/08/05 22:00:54;;;;;;;17.13;5.97;;;;;;;28.83;82.43;99189.22;5033019;28;20071;-65
2023/08/05 22:03:20;;;;;;;23.00;8.77;;;;;;;28.39;83.39;99137.75;5033242;28;20037;-64
2023/08/05 22:05:45;;;;;;;26.17;9.75;;;;;;;28.65;83.56;99187.59;5030479;28;20120;-65
2023/08/05 22:08:11;;;;;;;31.92;8.93;;;;;;;28.52;83.91;99190.97;5033393;28;20167;-65
2023/08/05 22:10:38;;;;;;;36.63;10.77;;;;;;;28.31;84.40;99147.94;5033258;28;20163;-64
2023/08/05 22:13:03;;;;;;;19.70;8.00;;;;;;;28.43;84.20;99182.72;5030815;28;20026;-64
2023/08/05 22:15:29;;;;;;;10.02;5.68;;;;;;;28.12;85.07;99165.91;5032988;28;20031;-62
2023/08/05 22:17:54;;;;;;;12.95;5.65;;;;;;;28.02;85.51;99176.97;5021146;28;20413;-66
2023/08/05 22:20:19;;;;;;;13.98;5.50;;;;;;;27.81;86.82;99170.22;5017286;28;20037;-66
2023/08/05 22:22:45;;;;;;;10.63;5.97;;;;;;;27.39;89.07;99170.66;5031085;28;20023;-69
2023/08/05 22:25:10;;;;;;;11.90;6.15;;;;;;;27.24;90.23;99182.94;5015109;28;20049;-64
2023/08/05 22:27:36;;;;;;;10.93;5.95;;;;;;;27.04;91.28;99183.13;5020254;28;20030;-63
2023/08/05 22:30:01;;;;;;;10.70;6.03;;;;;;;26.93;91.94;99171.28;4999246;28;20128;-67
2023/08/05 22:32:27;;;;;;;9.52;6.43;;;;;;;26.81;92.36;99161.31;5012947;28;20484;-63
2023/08/05 22:34:53;;;;;;;8.90;6.32;;;;;;;26.69;93.12;99143.38;5011536;28;20438;-65
2023/08/05 22:37:19;;;;;;;13.52;6.30;;;;;;;26.83;93.53;99172.72;5019362;28;20137;-66
2023/08/05 22:39:44;;;;;;;11.90;7.10;;;;;;;26.70;94.01;99163.63;5030801;28;20546;-68
2023/08/05 22:42:10;;;;;;;13.68;7.30;;;;;;;26.66;95.40;99162.09;5020825;28;20087;-65
2023/08/05 22:44:35;;;;;;;13.60;7.18;;;;;;;26.59;96.46;99162.41;5017549;28;20030;-67
2023/08/05 22:47:00;;;;;;;8.32;6.78;;;;;;;26.55;96.48;99154.69;5030336;28;20029;-66
2023/08/05 22:49:26;;;;;;;11.93;6.72;;;;;;;26.45;96.98;99163.06;5032137;28;20022;-63
2023/08/05 22:51:51;;;;;;;10.45;6.55;;;;;;;26.39;97.39;99144.00;5029535;28;20120;-65
2023/08/05 22:54:17;;;;;;;12.63;6.97;;;;;;;26.30;98.17;99151.47;5032565;28;20434;-68
2023/08/05 22:56:42;;;;;;;10.80;6.45;;;;;;;26.26;98.07;99149.06;5032266;28;20530;-68
2023/08/05 22:59:08;;;;;;;11.13;6.70;;;;;;;26.27;97.88;99151.63;5032297;28;20025;-64
2023/08/05 23:01:33;;;;;;;11.05;6.80;;;;;;;26.41;97.58;99142.16;5030279;28;20029;-67
2023/08/05 23:03:58;;;;;;;9.70;6.43;;;;;;;26.57;96.83;99123.72;5031415;28;20029;-67
2023/08/05 23:06:24;;;;;;;12.30;6.38;;;;;;;26.71;95.57;99131.78;5031790;28;20029;-65
2023/08/05 23:08:49;;;;;;;12.57;7.32;;;;;;;26.61;95.54;99133.19;5031657;28;20754;-68
2023/08/05 23:11:15;;;;;;;11.27;7.30;;;;;;;26.58;95.44;99098.94;5032154;28;20028;-66
2023/08/05 23:13:40;;;;;;;11.32;6.03;;;;;;;26.73;94.97;99116.69;5031915;28;20030;-67
2023/08/05 23:16:13;;;;;;;10.40;6.68;;;;;;;26.75;95.66;99124.56;5031693;28;20602;-65
2023/08/05 23:18:39;;;;;;;10.77;6.70;;;;;;;26.72;96.38;99132.66;5030996;28;20026;-63
2023/08/05 23:21:05;;;;;;;9.10;6.35;;;;;;;26.73;96.66;99121.97;5032338;28;20037;-66
2023/08/05 23:23:32;;;;;;;11.43;6.80;;;;;;;26.70;96.41;99116.00;5031713;28;20430;-62
2023/08/05 23:26:05;;;;;;;12.48;7.18;;;;;;;26.64;97.48;99130.38;5031582;28;20057;-66
2023/08/05 23:28:31;;;;;;;12.90;7.00;;;;;;;26.56;97.72;99132.59;5031861;28;20079;-66
2023/08/05 23:30:57;;;;;;;11.23;7.25;;;;;;;26.46;98.13;99142.78;5032045;28;20502;-64
2023/08/05 23:33:22;;;;;;;10.45;7.05;;;;;;;26.39;98.46;99128.13;5031296;28;20033;-67
2023/08/05 23:35:53;;;;;;;10.07;7.13;;;;;;;26.42;98.40;99106.81;5031527;28;20033;-68
2023/08/05 23:38:19;;;;;;;10.32;6.43;;;;;;;26.55;98.83;99114.97;5031026;28;20042;-68
2023/08/05 23:40:45;;;;;;;12.77;7.32;;;;;;;26.60;98.55;99123.53;5031186;28;20403;-68
2023/08/05 23:43:11;;;;;;;14.88;7.18;;;;;;;26.55;98.49;99121.13;5031482;28;20036;-68
2023/08/05 23:45:36;;;;;;;13.23;7.10;;;;;;;26.42;98.40;99112.13;5031159;28;20367;-68
2023/08/05 23:48:02;;;;;;;12.48;6.78;;;;;;;26.37;98.47;99108.81;5031261;28;20029;-69
2023/08/05 23:50:27;;;;;;;13.93;6.50;;;;;;;26.39;98.63;99106.97;5030207;28;20061;-68
2023/08/05 23:52:53;;;;;;;11.68;7.03;;;;;;;26.38;99.67;99098.19;5031110;28;20029;-67
2023/08/05 23:55:18;;;;;;;12.55;7.22;;;;;;;26.44;99.09;99091.69;5031054;28;20113;-66
2023/08/05 23:57:44;;;;;;;13.02;7.53;;;;;;;26.27;99.06;99056.38;5031076;28;20029;-69
